Terminal Aerodrome Forecast
Issued by NWS

Home | Current Version | Previous Version | Graphics & Text | Print | Product List | Glossary On
Versions: 1 2 3 4 5 6 7 8 9 10 11 12 13 14 15 16 17 18 19
000
FTUS43 KICT 161135
TAFSLN
TAF
KSLN 161135Z 1612/1712 11009KT 6SM BR SCT010 BKN090
      TEMPO 1612/1614 4SM BR BKN010
     FM161600 14013G19KT P6SM SCT020 BKN035
     FM170100 12009KT P6SM SCT030 OVC100
      TEMPO 1708/1712 4SM BR OVC012=

USA.gov is the U.S. government's official web portal to all federal, state and local government web resources and services.